Cordova, AK (99574)

10:49 PM AKDT on August 22, 2017 (GMT -0800)
Cordova - Alpine Falls | | Change Station

Elev 135 ft 60.54 °N, 145.71 °W | Updated 12 seconds ago

Rain
Rain
55.6 °F
Feels Like 55.6 °F
N
0.0
Wind Variable Wind from SSW
Gusts 0.0 mph

Today
High -- | Low -- °F
--% Chance of Precip.
Yesterday
High -- | Low -- °F
Precip. -- in
Pressure 29.75 in
Visibility 10.0 miles
Clouds Scattered Clouds 1600 ft
Mostly Cloudy 6000 ft
Mostly Cloudy 10000 ft
Dew Point 51 °F
Humidity 84%
Rainfall 0.02 in
Snow Depth Not available.
6:13 AM 9:16 PM
Waxing Crescent, 3% visible
METAR PACV 230553Z 12004KT 10SM SCT016 BKN060 BKN100 12/12 A2975 RMK AO2 RAB02E49 SLP075 P0001 60001 T01220117 10178 20122 53015
Pressure 29.75 in
Visibility 10.0 miles
Clouds Scattered Clouds 1600 ft
Mostly Cloudy 6000 ft
Mostly Cloudy 10000 ft
Dew Point 51 °F
Humidity 84%
Rainfall 0.02 in
Snow Depth Not available.
6:13 AM 9:16 PM
Waxing Crescent, 3% visible
METAR PACV 230553Z 12004KT 10SM SCT016 BKN060 BKN100 12/12 A2975 RMK AO2 RAB02E49 SLP075 P0001 60001 T01220117 10178 20122 53015

Get Severe Weather Alerts

Thanks for signing up!

Be on the lookout for a verification email in your inbox.

You'll start receiving the daily forecast at 6 AM.

×

10-Day Weather Forecast

Almanac

Astronomy

Aug. 22, 2017 Rise Set
Actual Time
Civil Twilight
Nautical Twilight
Astronomical Twilight
Moon
Length of Visible Light
Length of Day
Tomorrow will be .
, % of the Moon is Illuminated

Today's Extremes

State Highs State Lows

Community

WunderPhotos

Category 6

Welcome to Category 6. This is the collective home for Weather Underground's featured writeups by Dr. Jeff Masters (right), Bob Henson (left), Chris Burt, and other regular contributors.

Nearby

Air Quality

  Air Quality AQ Index Pollutant
Not available.

Snow Depth

Station Depth Elevation

Earthquake Activity

City Distance Mag. Time & Date
Minimum magnitude displayed is 2.5.

Coastal Water Temperatures

Place Temperature

Stations

Nearby Weather Stations

Station Location Temp. Windchill Dew Point Humidity Wind Precip. Elev Updated Type
                   

Watches & Warnings

There are currently no watches in effect.